sensor_id;sensor_type;location;lat;lon;timestamp;temperature;humidity
2647;DHT22;1333;50.958;6.770;2023-12-07T00:00:17;3.00;99.90
2647;DHT22;1333;50.958;6.770;2023-12-07T00:02:43;2.90;99.90
2647;DHT22;1333;50.958;6.770;2023-12-07T00:05:08;2.90;99.90
2647;DHT22;1333;50.958;6.770;2023-12-07T00:07:34;2.90;99.90
2647;DHT22;1333;50.958;6.770;2023-12-07T00:09:59;3.00;99.90
2647;DHT22;1333;50.958;6.770;2023-12-07T00:12:25;3.00;99.90
2647;DHT22;1333;50.958;6.770;2023-12-07T00:14:50;3.00;99.90
2647;DHT22;1333;50.958;6.770;2023-12-07T00:17:16;2.90;99.90
2647;DHT22;1333;50.958;6.770;2023-12-07T00:19:41;2.90;99.90
2647;DHT22;1333;50.958;6.770;2023-12-07T00:22:07;2.90;99.90
2647;DHT22;1333;50.958;6.770;2023-12-07T00:24:32;2.90;99.90
2647;DHT22;1333;50.958;6.770;2023-12-07T00:26:58;2.80;99.90
2647;DHT22;1333;50.958;6.770;2023-12-07T00:29:23;2.80;99.90
2647;DHT22;1333;50.958;6.770;2023-12-07T00:31:49;2.80;99.90
2647;DHT22;1333;50.958;6.770;2023-12-07T00:34:14;2.80;99.90
2647;DHT22;1333;50.958;6.770;2023-12-07T00:36:43;2.70;99.90
2647;DHT22;1333;50.958;6.770;2023-12-07T00:39:09;2.70;99.90
2647;DHT22;1333;50.958;6.770;2023-12-07T00:41:35;2.70;99.90
2647;DHT22;1333;50.958;6.770;2023-12-07T00:44:00;2.60;99.90
2647;DHT22;1333;50.958;6.770;2023-12-07T00:46:25;2.60;99.90
2647;DHT22;1333;50.958;6.770;2023-12-07T00:48:51;2.60;99.90
2647;DHT22;1333;50.958;6.770;2023-12-07T00:51:16;2.60;99.90
2647;DHT22;1333;50.958;6.770;2023-12-07T00:53:42;2.70;99.90
2647;DHT22;1333;50.958;6.770;2023-12-07T00:56:08;2.60;99.90
2647;DHT22;1333;50.958;6.770;2023-12-07T00:58:33;2.60;99.90
2647;DHT22;1333;50.958;6.770;2023-12-07T01:00:59;2.60;99.90
2647;DHT22;1333;50.958;6.770;2023-12-07T01:03:25;2.60;99.90
2647;DHT22;1333;50.958;6.770;2023-12-07T01:05:50;2.60;99.90
2647;DHT22;1333;50.958;6.770;2023-12-07T01:08:16;2.60;99.90
2647;DHT22;1333;50.958;6.770;2023-12-07T01:10:41;2.50;99.90
2647;DHT22;1333;50.958;6.770;2023-12-07T01:13:07;2.50;99.90
2647;DHT22;1333;50.958;6.770;2023-12-07T01:15:32;2.50;99.90
2647;DHT22;1333;50.958;6.770;2023-12-07T01:17:58;2.50;99.90
2647;DHT22;1333;50.958;6.770;2023-12-07T01:20:23;2.40;99.90
2647;DHT22;1333;50.958;6.770;2023-12-07T01:22:49;2.30;99.90
2647;DHT22;1333;50.958;6.770;2023-12-07T01:25:14;2.30;99.90
2647;DHT22;1333;50.958;6.770;2023-12-07T01:27:45;2.30;99.90
2647;DHT22;1333;50.958;6.770;2023-12-07T01:30:10;2.20;99.90
2647;DHT22;1333;50.958;6.770;2023-12-07T01:32:36;2.20;99.90
2647;DHT22;1333;50.958;6.770;2023-12-07T01:35:02;2.10;99.90
2647;DHT22;1333;50.958;6.770;2023-12-07T01:37:27;2.10;99.90
2647;DHT22;1333;50.958;6.770;2023-12-07T01:39:54;2.10;99.90
2647;DHT22;1333;50.958;6.770;2023-12-07T01:42:20;2.10;99.90
2647;DHT22;1333;50.958;6.770;2023-12-07T01:44:46;2.00;99.90
2647;DHT22;1333;50.958;6.770;2023-12-07T01:47:11;2.00;99.90
2647;DHT22;1333;50.958;6.770;2023-12-07T01:49:37;2.00;99.90
2647;DHT22;1333;50.958;6.770;2023-12-07T01:52:04;2.00;99.90
2647;DHT22;1333;50.958;6.770;2023-12-07T01:54:30;2.00;99.90
2647;DHT22;1333;50.958;6.770;2023-12-07T01:56:56;2.00;99.90
2647;DHT22;1333;50.958;6.770;2023-12-07T01:59:22;2.00;99.90
2647;DHT22;1333;50.958;6.770;2023-12-07T02:01:48;2.00;99.90
2647;DHT22;1333;50.958;6.770;2023-12-07T02:04:14;2.00;99.90
2647;DHT22;1333;50.958;6.770;2023-12-07T02:06:39;1.90;99.90
2647;DHT22;1333;50.958;6.770;2023-12-07T02:09:05;1.90;99.90
2647;DHT22;1333;50.958;6.770;2023-12-07T02:11:31;1.90;99.90
2647;DHT22;1333;50.958;6.770;2023-12-07T02:13:56;1.90;99.90
2647;DHT22;1333;50.958;6.770;2023-12-07T02:16:31;1.80;99.90
2647;DHT22;1333;50.958;6.770;2023-12-07T02:19:07;1.90;99.90
2647;DHT22;1333;50.958;6.770;2023-12-07T02:21:42;1.90;99.90
2647;DHT22;1333;50.958;6.770;2023-12-07T02:24:16;2.00;99.90
2647;DHT22;1333;50.958;6.770;2023-12-07T02:26:45;2.00;99.90
2647;DHT22;1333;50.958;6.770;2023-12-07T02:29:10;2.00;99.90
2647;DHT22;1333;50.958;6.770;2023-12-07T02:31:36;2.10;99.90
2647;DHT22;1333;50.958;6.770;2023-12-07T02:34:01;2.10;99.90
2647;DHT22;1333;50.958;6.770;2023-12-07T02:36:28;2.20;99.90
2647;DHT22;1333;50.958;6.770;2023-12-07T02:38:57;2.30;99.90
2647;DHT22;1333;50.958;6.770;2023-12-07T02:41:23;2.20;99.90
2647;DHT22;1333;50.958;6.770;2023-12-07T02:43:50;2.20;99.90
2647;DHT22;1333;50.958;6.770;2023-12-07T02:46:17;2.20;99.90
2647;DHT22;1333;50.958;6.770;2023-12-07T02:48:43;2.20;99.90
2647;DHT22;1333;50.958;6.770;2023-12-07T02:51:09;2.20;99.90
2647;DHT22;1333;50.958;6.770;2023-12-07T02:53:34;2.10;99.90
2647;DHT22;1333;50.958;6.770;2023-12-07T02:56:00;2.10;99.90
2647;DHT22;1333;50.958;6.770;2023-12-07T02:58:25;2.10;99.90
2647;DHT22;1333;50.958;6.770;2023-12-07T03:00:51;2.00;99.90
2647;DHT22;1333;50.958;6.770;2023-12-07T03:03:16;2.00;99.90
2647;DHT22;1333;50.958;6.770;2023-12-07T03:05:42;2.00;99.90
2647;DHT22;1333;50.958;6.770;2023-12-07T03:08:07;1.90;99.90
2647;DHT22;1333;50.958;6.770;2023-12-07T03:10:33;1.80;99.90
2647;DHT22;1333;50.958;6.770;2023-12-07T03:12:58;1.70;99.90
2647;DHT22;1333;50.958;6.770;2023-12-07T03:15:24;1.70;99.90
2647;DHT22;1333;50.958;6.770;2023-12-07T03:17:50;1.60;99.90
2647;DHT22;1333;50.958;6.770;2023-12-07T03:20:16;1.60;99.90
2647;DHT22;1333;50.958;6.770;2023-12-07T03:22:42;1.60;99.90
2647;DHT22;1333;50.958;6.770;2023-12-07T03:25:07;1.50;99.90
2647;DHT22;1333;50.958;6.770;2023-12-07T03:27:33;1.50;99.90
2647;DHT22;1333;50.958;6.770;2023-12-07T03:29:59;1.50;99.90
2647;DHT22;1333;50.958;6.770;2023-12-07T03:32:24;1.40;99.90
2647;DHT22;1333;50.958;6.770;2023-12-07T03:34:50;1.30;99.90
2647;DHT22;1333;50.958;6.770;2023-12-07T03:37:15;1.30;99.90
2647;DHT22;1333;50.958;6.770;2023-12-07T03:39:41;1.30;99.90
2647;DHT22;1333;50.958;6.770;2023-12-07T03:42:06;1.30;99.90
2647;DHT22;1333;50.958;6.770;2023-12-07T03:44:32;1.30;99.90
2647;DHT22;1333;50.958;6.770;2023-12-07T03:46:57;1.20;99.90
2647;DHT22;1333;50.958;6.770;2023-12-07T03:49:23;1.20;99.90
2647;DHT22;1333;50.958;6.770;2023-12-07T03:51:48;1.20;99.90
2647;DHT22;1333;50.958;6.770;2023-12-07T03:54:14;1.10;99.90
2647;DHT22;1333;50.958;6.770;2023-12-07T03:56:39;1.10;99.90
2647;DHT22;1333;50.958;6.770;2023-12-07T03:59:08;1.10;99.90
2647;DHT22;1333;50.958;6.770;2023-12-07T04:01:33;1.10;99.90
2647;DHT22;1333;50.958;6.770;2023-12-07T04:03:59;1.10;99.90
2647;DHT22;1333;50.958;6.770;2023-12-07T04:06:26;1.00;99.90
2647;DHT22;1333;50.958;6.770;2023-12-07T04:08:51;1.00;99.90
2647;DHT22;1333;50.958;6.770;2023-12-07T04:11:18;1.00;99.90
2647;DHT22;1333;50.958;6.770;2023-12-07T04:13:44;0.90;99.90
2647;DHT22;1333;50.958;6.770;2023-12-07T04:16:10;0.90;99.90
2647;DHT22;1333;50.958;6.770;2023-12-07T04:18:36;0.90;99.90
2647;DHT22;1333;50.958;6.770;2023-12-07T04:21:02;0.90;99.90
2647;DHT22;1333;50.958;6.770;2023-12-07T04:23:28;0.90;99.90
2647;DHT22;1333;50.958;6.770;2023-12-07T04:25:53;0.90;99.90
2647;DHT22;1333;50.958;6.770;2023-12-07T04:28:19;0.80;99.90
2647;DHT22;1333;50.958;6.770;2023-12-07T04:30:45;0.80;99.90
2647;DHT22;1333;50.958;6.770;2023-12-07T04:33:10;0.80;99.90
2647;DHT22;1333;50.958;6.770;2023-12-07T04:35:36;0.70;99.90
2647;DHT22;1333;50.958;6.770;2023-12-07T04:38:02;0.70;99.90
2647;DHT22;1333;50.958;6.770;2023-12-07T04:40:27;0.80;99.90
2647;DHT22;1333;50.958;6.770;2023-12-07T04:42:53;0.70;99.90
2647;DHT22;1333;50.958;6.770;2023-12-07T04:45:18;0.80;99.90
2647;DHT22;1333;50.958;6.770;2023-12-07T04:47:44;0.70;99.90
2647;DHT22;1333;50.958;6.770;2023-12-07T04:50:10;0.70;99.90
2647;DHT22;1333;50.958;6.770;2023-12-07T04:52:36;0.70;99.90
2647;DHT22;1333;50.958;6.770;2023-12-07T04:55:02;0.70;99.90
2647;DHT22;1333;50.958;6.770;2023-12-07T04:57:27;0.70;99.90
2647;DHT22;1333;50.958;6.770;2023-12-07T04:59:53;0.60;99.90
2647;DHT22;1333;50.958;6.770;2023-12-07T05:02:19;0.60;99.90
2647;DHT22;1333;50.958;6.770;2023-12-07T05:04:45;0.60;99.90
2647;DHT22;1333;50.958;6.770;2023-12-07T05:07:11;0.60;99.90
2647;DHT22;1333;50.958;6.770;2023-12-07T05:09:38;0.60;99.90
2647;DHT22;1333;50.958;6.770;2023-12-07T05:12:04;0.70;99.90
2647;DHT22;1333;50.958;6.770;2023-12-07T05:14:31;0.80;99.90
2647;DHT22;1333;50.958;6.770;2023-12-07T05:16:56;0.90;99.90
2647;DHT22;1333;50.958;6.770;2023-12-07T05:19:25;0.90;99.90
2647;DHT22;1333;50.958;6.770;2023-12-07T05:21:51;1.00;99.90
2647;DHT22;1333;50.958;6.770;2023-12-07T05:24:17;1.00;99.90
2647;DHT22;1333;50.958;6.770;2023-12-07T05:26:43;1.00;99.90
2647;DHT22;1333;50.958;6.770;2023-12-07T05:29:11;1.10;99.90
2647;DHT22;1333;50.958;6.770;2023-12-07T05:31:37;1.10;99.90
2647;DHT22;1333;50.958;6.770;2023-12-07T05:34:02;1.10;99.90
2647;DHT22;1333;50.958;6.770;2023-12-07T05:36:29;1.10;99.90
2647;DHT22;1333;50.958;6.770;2023-12-07T05:38:54;1.10;99.90
2647;DHT22;1333;50.958;6.770;2023-12-07T05:41:20;1.10;99.90
2647;DHT22;1333;50.958;6.770;2023-12-07T05:43:45;1.10;99.90
2647;DHT22;1333;50.958;6.770;2023-12-07T05:46:11;0.90;99.90
2647;DHT22;1333;50.958;6.770;2023-12-07T05:48:37;1.00;99.90
2647;DHT22;1333;50.958;6.770;2023-12-07T05:51:03;1.00;99.90
2647;DHT22;1333;50.958;6.770;2023-12-07T05:53:29;1.00;99.90
2647;DHT22;1333;50.958;6.770;2023-12-07T05:55:55;1.00;99.90
2647;DHT22;1333;50.958;6.770;2023-12-07T05:58:20;1.00;99.90
2647;DHT22;1333;50.958;6.770;2023-12-07T06:00:46;0.90;99.90
2647;DHT22;1333;50.958;6.770;2023-12-07T06:03:13;0.90;99.90
2647;DHT22;1333;50.958;6.770;2023-12-07T06:05:38;0.90;99.90
2647;DHT22;1333;50.958;6.770;2023-12-07T06:08:04;0.90;99.90
2647;DHT22;1333;50.958;6.770;2023-12-07T06:10:30;0.90;99.90
2647;DHT22;1333;50.958;6.770;2023-12-07T06:12:56;0.90;99.90
2647;DHT22;1333;50.958;6.770;2023-12-07T06:15:23;0.80;99.90
2647;DHT22;1333;50.958;6.770;2023-12-07T06:17:49;0.80;99.90
2647;DHT22;1333;50.958;6.770;2023-12-07T06:20:15;0.80;99.90
2647;DHT22;1333;50.958;6.770;2023-12-07T06:22:40;0.80;99.90
2647;DHT22;1333;50.958;6.770;2023-12-07T06:25:06;0.80;99.90
2647;DHT22;1333;50.958;6.770;2023-12-07T06:27:34;0.80;99.90
2647;DHT22;1333;50.958;6.770;2023-12-07T06:30:00;0.80;99.90
2647;DHT22;1333;50.958;6.770;2023-12-07T06:32:25;0.80;99.90
2647;DHT22;1333;50.958;6.770;2023-12-07T06:34:51;0.70;99.90
2647;DHT22;1333;50.958;6.770;2023-12-07T06:37:17;0.70;99.90
2647;DHT22;1333;50.958;6.770;2023-12-07T06:39:43;0.70;99.90
2647;DHT22;1333;50.958;6.770;2023-12-07T06:42:08;0.60;99.90
2647;DHT22;1333;50.958;6.770;2023-12-07T06:44:34;0.60;99.90
2647;DHT22;1333;50.958;6.770;2023-12-07T06:47:00;0.60;99.90
2647;DHT22;1333;50.958;6.770;2023-12-07T06:49:28;0.60;99.90
2647;DHT22;1333;50.958;6.770;2023-12-07T06:51:54;0.70;99.90
2647;DHT22;1333;50.958;6.770;2023-12-07T06:54:19;0.70;99.90
2647;DHT22;1333;50.958;6.770;2023-12-07T06:56:44;0.70;99.90
2647;DHT22;1333;50.958;6.770;2023-12-07T06:59:11;0.80;99.90
2647;DHT22;1333;50.958;6.770;2023-12-07T07:01:37;0.80;99.90
2647;DHT22;1333;50.958;6.770;2023-12-07T07:04:03;0.80;99.90
2647;DHT22;1333;50.958;6.770;2023-12-07T07:06:29;0.90;99.90
2647;DHT22;1333;50.958;6.770;2023-12-07T07:08:54;0.90;99.90
2647;DHT22;1333;50.958;6.770;2023-12-07T07:11:20;0.90;99.90
2647;DHT22;1333;50.958;6.770;2023-12-07T07:13:45;0.90;99.90
2647;DHT22;1333;50.958;6.770;2023-12-07T07:16:11;0.80;99.90
2647;DHT22;1333;50.958;6.770;2023-12-07T07:18:39;0.90;99.90
2647;DHT22;1333;50.958;6.770;2023-12-07T07:21:06;0.90;99.90
2647;DHT22;1333;50.958;6.770;2023-12-07T07:23:31;0.90;99.90
2647;DHT22;1333;50.958;6.770;2023-12-07T07:25:57;0.90;99.90
2647;DHT22;1333;50.958;6.770;2023-12-07T07:28:22;0.90;99.90
2647;DHT22;1333;50.958;6.770;2023-12-07T07:30:48;0.80;99.90
2647;DHT22;1333;50.958;6.770;2023-12-07T07:33:13;0.80;99.90
2647;DHT22;1333;50.958;6.770;2023-12-07T07:35:39;0.80;99.90
2647;DHT22;1333;50.958;6.770;2023-12-07T07:38:04;0.80;99.90
2647;DHT22;1333;50.958;6.770;2023-12-07T07:40:30;0.90;99.90
2647;DHT22;1333;50.958;6.770;2023-12-07T07:42:55;0.90;99.90
2647;DHT22;1333;50.958;6.770;2023-12-07T07:45:21;1.00;99.90
2647;DHT22;1333;50.958;6.770;2023-12-07T07:47:46;1.00;99.90
2647;DHT22;1333;50.958;6.770;2023-12-07T07:50:12;1.00;99.90
2647;DHT22;1333;50.958;6.770;2023-12-07T07:52:37;1.00;99.90
2647;DHT22;1333;50.958;6.770;2023-12-07T07:55:04;1.10;99.90
2647;DHT22;1333;50.958;6.770;2023-12-07T07:57:30;1.10;99.90
2647;DHT22;1333;50.958;6.770;2023-12-07T07:59:56;1.20;99.90
2647;DHT22;1333;50.958;6.770;2023-12-07T08:02:22;1.30;99.90
2647;DHT22;1333;50.958;6.770;2023-12-07T08:04:48;1.40;99.90
2647;DHT22;1333;50.958;6.770;2023-12-07T08:07:13;1.70;99.90
2647;DHT22;1333;50.958;6.770;2023-12-07T08:09:39;2.60;99.90
2647;DHT22;1333;50.958;6.770;2023-12-07T08:12:05;3.50;99.90
2647;DHT22;1333;50.958;6.770;2023-12-07T08:14:32;4.30;99.90
2647;DHT22;1333;50.958;6.770;2023-12-07T08:16:57;5.10;99.90
2647;DHT22;1333;50.958;6.770;2023-12-07T08:19:23;5.80;99.90
2647;DHT22;1333;50.958;6.770;2023-12-07T08:21:50;6.50;99.90
2647;DHT22;1333;50.958;6.770;2023-12-07T08:24:16;7.40;99.90
2647;DHT22;1333;50.958;6.770;2023-12-07T08:26:41;8.00;99.90
2647;DHT22;1333;50.958;6.770;2023-12-07T08:29:07;8.60;99.90
2647;DHT22;1333;50.958;6.770;2023-12-07T08:31:32;9.30;99.90
2647;DHT22;1333;50.958;6.770;2023-12-07T08:33:58;9.80;99.90
2647;DHT22;1333;50.958;6.770;2023-12-07T08:36:23;10.60;99.90
2647;DHT22;1333;50.958;6.770;2023-12-07T08:38:49;11.00;99.90
2647;DHT22;1333;50.958;6.770;2023-12-07T08:41:14;10.70;99.90
2647;DHT22;1333;50.958;6.770;2023-12-07T08:43:40;10.60;99.90
2647;DHT22;1333;50.958;6.770;2023-12-07T08:46:05;10.40;99.90
2647;DHT22;1333;50.958;6.770;2023-12-07T08:48:33;10.80;99.90
2647;DHT22;1333;50.958;6.770;2023-12-07T08:50:59;11.70;99.90
2647;DHT22;1333;50.958;6.770;2023-12-07T08:53:25;12.50;99.90
2647;DHT22;1333;50.958;6.770;2023-12-07T08:55:52;12.90;99.90
2647;DHT22;1333;50.958;6.770;2023-12-07T08:58:18;13.00;99.90
2647;DHT22;1333;50.958;6.770;2023-12-07T09:00:43;13.00;96.20
2647;DHT22;1333;50.958;6.770;2023-12-07T09:03:09;13.60;97.00
2647;DHT22;1333;50.958;6.770;2023-12-07T09:05:35;13.90;78.70
2647;DHT22;1333;50.958;6.770;2023-12-07T09:08:01;14.00;78.10
2647;DHT22;1333;50.958;6.770;2023-12-07T09:10:26;13.60;72.60
2647;DHT22;1333;50.958;6.770;2023-12-07T09:12:52;13.40;71.10
2647;DHT22;1333;50.958;6.770;2023-12-07T09:15:17;13.50;69.90
2647;DHT22;1333;50.958;6.770;2023-12-07T09:17:43;13.90;68.50
2647;DHT22;1333;50.958;6.770;2023-12-07T09:20:09;14.00;65.90
2647;DHT22;1333;50.958;6.770;2023-12-07T09:22:41;14.30;65.50
2647;DHT22;1333;50.958;6.770;2023-12-07T09:25:08;14.80;62.90
2647;DHT22;1333;50.958;6.770;2023-12-07T09:27:34;14.90;59.60
2647;DHT22;1333;50.958;6.770;2023-12-07T09:30:01;15.00;57.80
2647;DHT22;1333;50.958;6.770;2023-12-07T09:32:27;15.40;57.90
2647;DHT22;1333;50.958;6.770;2023-12-07T09:34:53;15.70;56.10
2647;DHT22;1333;50.958;6.770;2023-12-07T09:37:19;15.80;54.10
2647;DHT22;1333;50.958;6.770;2023-12-07T09:39:45;15.50;52.60
2647;DHT22;1333;50.958;6.770;2023-12-07T09:42:10;15.10;52.60
2647;DHT22;1333;50.958;6.770;2023-12-07T09:44:36;14.90;53.50
2647;DHT22;1333;50.958;6.770;2023-12-07T09:47:02;14.80;53.40
2647;DHT22;1333;50.958;6.770;2023-12-07T09:49:27;14.50;53.40
2647;DHT22;1333;50.958;6.770;2023-12-07T09:51:55;14.00;53.30
2647;DHT22;1333;50.958;6.770;2023-12-07T09:54:22;13.90;54.60
2647;DHT22;1333;50.958;6.770;2023-12-07T09:56:47;13.60;55.90
2647;DHT22;1333;50.958;6.770;2023-12-07T09:59:13;13.60;57.50
2647;DHT22;1333;50.958;6.770;2023-12-07T10:01:38;13.80;58.10
2647;DHT22;1333;50.958;6.770;2023-12-07T10:06:43;14.70;57.50
2647;DHT22;1333;50.958;6.770;2023-12-07T10:09:10;15.60;56.60
2647;DHT22;1333;50.958;6.770;2023-12-07T10:11:36;16.60;53.90
2647;DHT22;1333;50.958;6.770;2023-12-07T10:14:02;17.10;51.40
2647;DHT22;1333;50.958;6.770;2023-12-07T10:16:27;16.90;48.60
2647;DHT22;1333;50.958;6.770;2023-12-07T10:18:53;16.90;48.80
2647;DHT22;1333;50.958;6.770;2023-12-07T10:21:34;16.50;48.10
2647;DHT22;1333;50.958;6.770;2023-12-07T10:24:00;16.70;48.40
2647;DHT22;1333;50.958;6.770;2023-12-07T10:26:27;17.30;48.40
2647;DHT22;1333;50.958;6.770;2023-12-07T10:28:53;17.30;46.90
2647;DHT22;1333;50.958;6.770;2023-12-07T10:31:19;17.40;46.60
2647;DHT22;1333;50.958;6.770;2023-12-07T10:33:49;17.50;46.00
2647;DHT22;1333;50.958;6.770;2023-12-07T10:36:15;17.30;45.70
2647;DHT22;1333;50.958;6.770;2023-12-07T10:38:40;17.40;45.60
2647;DHT22;1333;50.958;6.770;2023-12-07T10:41:12;17.50;46.00
2647;DHT22;1333;50.958;6.770;2023-12-07T10:43:42;17.60;45.10
2647;DHT22;1333;50.958;6.770;2023-12-07T10:46:09;17.80;44.90
2647;DHT22;1333;50.958;6.770;2023-12-07T10:48:36;17.60;44.30
2647;DHT22;1333;50.958;6.770;2023-12-07T10:51:07;17.30;44.00
2647;DHT22;1333;50.958;6.770;2023-12-07T10:53:37;16.80;44.10
2647;DHT22;1333;50.958;6.770;2023-12-07T10:56:09;16.60;44.70
2647;DHT22;1333;50.958;6.770;2023-12-07T10:58:35;15.90;45.20
2647;DHT22;1333;50.958;6.770;2023-12-07T11:01:01;16.20;46.60
2647;DHT22;1333;50.958;6.770;2023-12-07T11:03:28;16.60;46.80
2647;DHT22;1333;50.958;6.770;2023-12-07T11:05:55;16.90;46.60
2647;DHT22;1333;50.958;6.770;2023-12-07T11:08:32;17.30;46.30
2647;DHT22;1333;50.958;6.770;2023-12-07T11:11:28;17.50;45.50
2647;DHT22;1333;50.958;6.770;2023-12-07T11:14:06;17.70;45.00
2647;DHT22;1333;50.958;6.770;2023-12-07T11:16:36;17.90;44.20
2647;DHT22;1333;50.958;6.770;2023-12-07T11:19:03;17.60;43.60
2647;DHT22;1333;50.958;6.770;2023-12-07T11:21:30;18.00;44.30
2647;DHT22;1333;50.958;6.770;2023-12-07T11:23:55;18.40;43.90
2647;DHT22;1333;50.958;6.770;2023-12-07T11:26:24;18.80;43.30
2647;DHT22;1333;50.958;6.770;2023-12-07T11:28:50;18.70;42.90
2647;DHT22;1333;50.958;6.770;2023-12-07T11:31:16;18.50;42.20
2647;DHT22;1333;50.958;6.770;2023-12-07T11:33:42;18.60;42.70
2647;DHT22;1333;50.958;6.770;2023-12-07T11:36:09;18.60;42.40
2647;DHT22;1333;50.958;6.770;2023-12-07T11:38:36;18.20;42.30
2647;DHT22;1333;50.958;6.770;2023-12-07T11:41:02;18.40;42.60
2647;DHT22;1333;50.958;6.770;2023-12-07T11:46:07;18.90;42.40
2647;DHT22;1333;50.958;6.770;2023-12-07T11:48:33;18.90;41.70
2647;DHT22;1333;50.958;6.770;2023-12-07T11:51:05;19.20;41.90
2647;DHT22;1333;50.958;6.770;2023-12-07T11:53:34;19.00;41.20
2647;DHT22;1333;50.958;6.770;2023-12-07T11:56:02;19.10;41.10
2647;DHT22;1333;50.958;6.770;2023-12-07T11:58:29;19.20;41.40
2647;DHT22;1333;50.958;6.770;2023-12-07T12:00:56;19.40;41.30
2647;DHT22;1333;50.958;6.770;2023-12-07T12:03:29;19.50;41.00
2647;DHT22;1333;50.958;6.770;2023-12-07T12:05:55;19.30;40.50
2647;DHT22;1333;50.958;6.770;2023-12-07T12:08:22;18.70;40.10
2647;DHT22;1333;50.958;6.770;2023-12-07T12:10:49;18.40;40.30
2647;DHT22;1333;50.958;6.770;2023-12-07T12:13:16;18.20;41.10
2647;DHT22;1333;50.958;6.770;2023-12-07T12:15:41;18.00;41.40
2647;DHT22;1333;50.958;6.770;2023-12-07T12:18:08;17.90;41.80
2647;DHT22;1333;50.958;6.770;2023-12-07T12:20:33;17.40;41.90
2647;DHT22;1333;50.958;6.770;2023-12-07T12:22:59;16.50;42.00
2647;DHT22;1333;50.958;6.770;2023-12-07T12:25:30;15.90;42.90
2647;DHT22;1333;50.958;6.770;2023-12-07T12:28:01;15.70;43.90
2647;DHT22;1333;50.958;6.770;2023-12-07T12:30:27;15.80;44.50
2647;DHT22;1333;50.958;6.770;2023-12-07T12:32:53;15.80;44.60
2647;DHT22;1333;50.958;6.770;2023-12-07T12:35:19;15.90;45.00
2647;DHT22;1333;50.958;6.770;2023-12-07T12:37:46;15.90;45.10
2647;DHT22;1333;50.958;6.770;2023-12-07T12:40:13;15.40;45.00
2647;DHT22;1333;50.958;6.770;2023-12-07T12:42:42;15.40;45.90
2647;DHT22;1333;50.958;6.770;2023-12-07T12:45:08;15.60;46.30
2647;DHT22;1333;50.958;6.770;2023-12-07T12:47:36;15.90;46.30
2647;DHT22;1333;50.958;6.770;2023-12-07T12:50:02;16.30;46.60
2647;DHT22;1333;50.958;6.770;2023-12-07T12:52:30;16.50;45.90
2647;DHT22;1333;50.958;6.770;2023-12-07T12:54:56;16.10;45.30
2647;DHT22;1333;50.958;6.770;2023-12-07T12:57:22;15.90;45.50
2647;DHT22;1333;50.958;6.770;2023-12-07T12:59:49;15.80;45.70
2647;DHT22;1333;50.958;6.770;2023-12-07T13:02:15;15.30;45.40
2647;DHT22;1333;50.958;6.770;2023-12-07T13:04:40;14.90;45.90
2647;DHT22;1333;50.958;6.770;2023-12-07T13:07:06;14.10;46.30
2647;DHT22;1333;50.958;6.770;2023-12-07T13:09:31;13.50;47.10
2647;DHT22;1333;50.958;6.770;2023-12-07T13:11:58;13.40;48.60
2647;DHT22;1333;50.958;6.770;2023-12-07T13:14:23;13.00;49.30
2647;DHT22;1333;50.958;6.770;2023-12-07T13:16:49;12.70;50.10
2647;DHT22;1333;50.958;6.770;2023-12-07T13:19:15;12.70;51.40
2647;DHT22;1333;50.958;6.770;2023-12-07T13:21:40;12.80;53.10
2647;DHT22;1333;50.958;6.770;2023-12-07T13:24:06;13.00;54.20
2647;DHT22;1333;50.958;6.770;2023-12-07T13:26:33;13.20;54.80
2647;DHT22;1333;50.958;6.770;2023-12-07T13:28:59;13.10;53.90
2647;DHT22;1333;50.958;6.770;2023-12-07T13:31:24;12.80;53.90
2647;DHT22;1333;50.958;6.770;2023-12-07T13:33:50;12.40;54.90
2647;DHT22;1333;50.958;6.770;2023-12-07T13:36:16;11.70;57.90
2647;DHT22;1333;50.958;6.770;2023-12-07T13:38:45;10.90;74.80
2647;DHT22;1333;50.958;6.770;2023-12-07T13:41:12;9.90;96.00
2647;DHT22;1333;50.958;6.770;2023-12-07T13:43:38;9.20;99.90
2647;DHT22;1333;50.958;6.770;2023-12-07T13:46:04;8.70;99.90
2647;DHT22;1333;50.958;6.770;2023-12-07T13:48:29;8.10;99.90
2647;DHT22;1333;50.958;6.770;2023-12-07T13:50:55;7.60;99.90
2647;DHT22;1333;50.958;6.770;2023-12-07T13:53:20;7.20;99.90
2647;DHT22;1333;50.958;6.770;2023-12-07T13:55:47;7.00;99.90
2647;DHT22;1333;50.958;6.770;2023-12-07T13:58:12;6.70;99.90
2647;DHT22;1333;50.958;6.770;2023-12-07T14:00:38;6.30;99.90
2647;DHT22;1333;50.958;6.770;2023-12-07T14:03:03;6.00;99.90
2647;DHT22;1333;50.958;6.770;2023-12-07T14:05:29;6.00;99.90
2647;DHT22;1333;50.958;6.770;2023-12-07T14:07:55;5.90;99.90
2647;DHT22;1333;50.958;6.770;2023-12-07T14:10:21;5.80;99.90
2647;DHT22;1333;50.958;6.770;2023-12-07T14:12:47;5.80;99.90
2647;DHT22;1333;50.958;6.770;2023-12-07T14:15:13;5.70;99.90
2647;DHT22;1333;50.958;6.770;2023-12-07T14:17:38;5.40;99.90
2647;DHT22;1333;50.958;6.770;2023-12-07T14:20:08;5.30;99.90
2647;DHT22;1333;50.958;6.770;2023-12-07T14:22:35;5.20;99.90
2647;DHT22;1333;50.958;6.770;2023-12-07T14:25:01;5.10;99.90
2647;DHT22;1333;50.958;6.770;2023-12-07T14:27:26;4.90;99.90
2647;DHT22;1333;50.958;6.770;2023-12-07T14:29:52;4.80;99.90
2647;DHT22;1333;50.958;6.770;2023-12-07T14:32:18;4.60;99.90
2647;DHT22;1333;50.958;6.770;2023-12-07T14:34:43;4.50;99.90
2647;DHT22;1333;50.958;6.770;2023-12-07T14:37:09;4.40;99.90
2647;DHT22;1333;50.958;6.770;2023-12-07T14:39:36;4.30;99.90
2647;DHT22;1333;50.958;6.770;2023-12-07T14:42:02;4.20;99.90
2647;DHT22;1333;50.958;6.770;2023-12-07T14:44:29;4.20;99.90
2647;DHT22;1333;50.958;6.770;2023-12-07T14:46:55;4.10;99.90
2647;DHT22;1333;50.958;6.770;2023-12-07T14:49:21;4.00;99.90
2647;DHT22;1333;50.958;6.770;2023-12-07T14:51:47;4.00;99.90
2647;DHT22;1333;50.958;6.770;2023-12-07T14:54:13;3.90;99.90
2647;DHT22;1333;50.958;6.770;2023-12-07T14:56:39;3.90;99.90
2647;DHT22;1333;50.958;6.770;2023-12-07T14:59:06;3.80;99.90
2647;DHT22;1333;50.958;6.770;2023-12-07T15:01:32;3.70;99.90
2647;DHT22;1333;50.958;6.770;2023-12-07T15:03:58;3.60;99.90
2647;DHT22;1333;50.958;6.770;2023-12-07T15:06:27;3.60;99.90
2647;DHT22;1333;50.958;6.770;2023-12-07T15:08:53;3.60;99.90
2647;DHT22;1333;50.958;6.770;2023-12-07T15:11:19;3.50;99.90
2647;DHT22;1333;50.958;6.770;2023-12-07T15:13:44;3.40;99.90
2647;DHT22;1333;50.958;6.770;2023-12-07T15:16:10;3.30;99.90
2647;DHT22;1333;50.958;6.770;2023-12-07T15:18:36;3.20;99.90
2647;DHT22;1333;50.958;6.770;2023-12-07T15:21:05;3.10;99.90
2647;DHT22;1333;50.958;6.770;2023-12-07T15:23:31;3.00;99.90
2647;DHT22;1333;50.958;6.770;2023-12-07T15:25:59;2.90;99.90
2647;DHT22;1333;50.958;6.770;2023-12-07T15:28:25;2.90;99.90
2647;DHT22;1333;50.958;6.770;2023-12-07T15:30:51;2.80;99.90
2647;DHT22;1333;50.958;6.770;2023-12-07T15:33:16;2.70;99.90
2647;DHT22;1333;50.958;6.770;2023-12-07T15:35:42;2.70;99.90
2647;DHT22;1333;50.958;6.770;2023-12-07T15:38:08;2.60;99.90
2647;DHT22;1333;50.958;6.770;2023-12-07T15:40:36;2.60;99.90
2647;DHT22;1333;50.958;6.770;2023-12-07T15:43:01;2.50;99.90
2647;DHT22;1333;50.958;6.770;2023-12-07T15:45:27;2.50;99.90
2647;DHT22;1333;50.958;6.770;2023-12-07T15:47:53;2.50;99.90
2647;DHT22;1333;50.958;6.770;2023-12-07T15:50:19;2.50;99.90
2647;DHT22;1333;50.958;6.770;2023-12-07T15:52:44;2.60;99.90
2647;DHT22;1333;50.958;6.770;2023-12-07T15:55:10;2.60;99.90
2647;DHT22;1333;50.958;6.770;2023-12-07T15:57:35;2.60;99.90
2647;DHT22;1333;50.958;6.770;2023-12-07T16:00:01;2.50;99.90
2647;DHT22;1333;50.958;6.770;2023-12-07T16:02:27;2.60;99.90
2647;DHT22;1333;50.958;6.770;2023-12-07T16:04:52;2.60;99.90
2647;DHT22;1333;50.958;6.770;2023-12-07T16:07:18;2.60;99.90
2647;DHT22;1333;50.958;6.770;2023-12-07T16:09:44;2.60;99.90